createdAt,value
2023-03-22T00:00:16.553Z,1
2023-03-22T00:05:16.537Z,1
2023-03-22T00:10:19.929Z,0
2023-03-22T00:15:19.774Z,1
2023-03-22T00:20:20.876Z,1
2023-03-22T00:25:19.690Z,2
2023-03-22T00:30:19.697Z,2
2023-03-22T00:35:19.825Z,1
2023-03-22T00:40:19.808Z,1
2023-03-22T00:45:19.810Z,1
2023-03-22T00:50:19.830Z,2
2023-03-22T00:55:16.689Z,1
2023-03-22T01:00:16.921Z,1
2023-03-22T01:05:19.989Z,0
2023-03-22T01:10:19.833Z,0
2023-03-22T01:15:19.801Z,1
2023-03-22T01:20:20.098Z,0
2023-03-22T01:25:19.765Z,0
2023-03-22T01:30:19.795Z,0
2023-03-22T01:35:19.796Z,0
2023-03-22T01:40:19.896Z,0
2023-03-22T01:45:16.860Z,0
2023-03-22T01:50:16.717Z,1
2023-03-22T01:55:19.983Z,1
2023-03-22T02:00:19.902Z,0
2023-03-22T02:05:19.944Z,0
2023-03-22T02:10:19.912Z,0
2023-03-22T02:15:19.950Z,0
2023-03-22T02:20:19.847Z,0
2023-03-22T02:25:19.940Z,1
2023-03-22T02:30:20.060Z,1
2023-03-22T02:35:20.024Z,1
2023-03-22T02:40:16.869Z,1
2023-03-22T02:45:16.880Z,1
2023-03-22T02:50:19.962Z,0
2023-03-22T02:55:20.017Z,0
2023-03-22T03:00:19.984Z,0
2023-03-22T03:05:20.014Z,0
2023-03-22T03:10:19.966Z,0
2023-03-22T03:15:20.018Z,0
2023-03-22T03:20:20.014Z,0
2023-03-22T03:25:20.180Z,0
2023-03-22T03:30:19.999Z,0
2023-03-22T03:35:17.142Z,0
2023-03-22T03:40:20.179Z,0
2023-03-22T03:45:20.116Z,1
2023-03-22T03:50:20.037Z,1
2023-03-22T03:55:20.210Z,0
2023-03-22T04:00:19.353Z,0
2023-03-22T04:05:19.363Z,0
2023-03-22T04:10:19.349Z,0
2023-03-22T04:15:19.422Z,0
2023-03-22T04:20:19.452Z,0
2023-03-22T04:25:19.426Z,0
2023-03-22T04:30:19.421Z,2
2023-03-22T04:35:19.492Z,2
2023-03-22T04:40:16.465Z,1
2023-03-22T04:45:16.346Z,1
2023-03-22T04:50:19.475Z,0
2023-03-22T04:55:19.473Z,0
2023-03-22T05:00:19.480Z,0
2023-03-22T05:05:19.416Z,0
2023-03-22T05:10:19.494Z,0
2023-03-22T05:15:19.377Z,0
2023-03-22T05:20:19.457Z,0
2023-03-22T05:25:19.528Z,1
2023-03-22T05:30:19.529Z,0
2023-03-22T05:35:16.409Z,1
2023-03-22T05:40:16.584Z,1
2023-03-22T05:45:19.565Z,0
2023-03-22T05:50:19.493Z,1
2023-03-22T05:55:19.562Z,1
2023-03-22T06:00:19.653Z,1
2023-03-22T06:05:19.624Z,1
2023-03-22T06:10:19.628Z,0
2023-03-22T06:15:19.584Z,1
2023-03-22T06:20:19.615Z,0
2023-03-22T06:25:16.481Z,0
2023-03-22T06:30:16.487Z,0
2023-03-22T06:35:19.694Z,0
2023-03-22T06:40:19.650Z,0
2023-03-22T06:45:19.678Z,0
2023-03-22T06:50:19.668Z,0
2023-03-22T06:55:19.782Z,0
2023-03-22T07:00:19.671Z,0
2023-03-22T07:05:19.712Z,0
2023-03-22T07:10:16.599Z,0
2023-03-22T07:15:19.734Z,0
2023-03-22T07:20:16.669Z,0
2023-03-22T07:25:16.620Z,0
2023-03-22T07:30:19.885Z,0
2023-03-22T07:35:19.817Z,0
2023-03-22T07:40:19.859Z,0
2023-03-22T07:45:19.820Z,0
2023-03-22T07:50:19.867Z,0
2023-03-22T07:55:19.971Z,0
2023-03-22T08:00:19.769Z,0
2023-03-22T08:05:19.762Z,0
2023-03-22T08:10:19.780Z,0
2023-03-22T08:15:16.791Z,0
2023-03-22T08:20:16.711Z,0
2023-03-22T08:25:19.848Z,0
2023-03-22T08:30:19.818Z,0
2023-03-22T08:35:19.864Z,0
2023-03-22T08:40:19.931Z,0
2023-03-22T08:45:19.879Z,0
2023-03-22T08:50:19.990Z,0
2023-03-22T08:55:19.922Z,0
2023-03-22T09:00:20.098Z,0
2023-03-22T09:05:16.869Z,0
2023-03-22T09:10:16.924Z,0
2023-03-22T09:15:20.060Z,0
2023-03-22T09:20:19.957Z,0
2023-03-22T09:25:19.999Z,0
2023-03-22T09:30:20.037Z,0
2023-03-22T09:35:20.123Z,0
2023-03-22T09:40:20.026Z,0
2023-03-22T09:45:19.928Z,1
2023-03-22T09:50:20.111Z,0
2023-03-22T09:55:19.994Z,0
2023-03-22T10:00:17.047Z,0
2023-03-22T10:05:17.068Z,0
2023-03-22T10:10:20.324Z,0
2023-03-22T10:15:20.109Z,0
2023-03-22T10:20:20.111Z,0
2023-03-22T10:25:20.179Z,0
2023-03-22T10:30:20.047Z,0
2023-03-22T10:35:20.173Z,0
2023-03-22T10:40:20.171Z,0
2023-03-22T10:45:20.114Z,0
2023-03-22T10:50:20.147Z,0
2023-03-22T10:55:17.161Z,0
2023-03-22T11:00:17.291Z,0
2023-03-22T11:05:20.218Z,0
2023-03-22T11:10:20.226Z,0
2023-03-22T11:15:20.320Z,0
2023-03-22T11:20:20.252Z,0
2023-03-22T11:25:20.282Z,0
2023-03-22T11:30:20.437Z,0
2023-03-22T11:35:20.346Z,0
2023-03-22T11:40:20.300Z,0
2023-03-22T11:45:20.309Z,0
2023-03-22T11:50:17.261Z,0
2023-03-22T11:55:20.314Z,0
2023-03-22T12:00:20.398Z,0
2023-03-22T12:05:20.395Z,1
2023-03-22T12:10:20.309Z,0
2023-03-22T12:15:20.300Z,0
2023-03-22T12:20:21.913Z,0
2023-03-22T12:25:20.367Z,0
2023-03-22T12:30:20.449Z,0
2023-03-22T12:35:20.465Z,1
2023-03-22T12:40:17.215Z,0
2023-03-22T12:45:17.346Z,1
2023-03-22T12:50:20.548Z,0
2023-03-22T12:55:20.467Z,1
2023-03-22T13:00:20.426Z,1
2023-03-22T13:05:20.454Z,1
2023-03-22T13:10:20.515Z,2
2023-03-22T13:15:23.821Z,3
2023-03-22T13:20:20.488Z,4
2023-03-22T13:25:20.528Z,3
2023-03-22T13:30:20.395Z,3
2023-03-22T13:35:17.441Z,3
2023-03-22T13:40:17.430Z,5
2023-03-22T13:45:20.773Z,3
2023-03-22T13:50:20.507Z,3
2023-03-22T13:55:20.548Z,5
2023-03-22T14:00:21.078Z,2
2023-03-22T14:05:20.516Z,4
2023-03-22T14:10:20.608Z,7
2023-03-22T14:15:20.716Z,5
2023-03-22T14:20:20.647Z,6
2023-03-22T14:55:18.724Z,8
2023-03-22T15:00:18.625Z,5
2023-03-22T15:05:15.503Z,5
2023-03-22T15:10:15.582Z,5
2023-03-22T15:15:18.776Z,5
2023-03-22T15:20:18.637Z,1
2023-03-22T15:25:18.798Z,8
2023-03-22T15:30:18.681Z,6
2023-03-22T15:35:18.817Z,5
2023-03-22T15:40:18.781Z,7
2023-03-22T15:45:18.684Z,5
2023-03-22T15:50:15.786Z,7
2023-03-22T15:55:18.832Z,8
2023-03-22T16:00:15.759Z,6
2023-03-22T16:05:18.864Z,4
2023-03-22T16:10:18.776Z,5
2023-03-22T16:15:18.749Z,5
2023-03-22T16:20:18.825Z,3
2023-03-22T16:25:18.792Z,4
2023-03-22T16:30:19.100Z,8
2023-03-22T16:35:15.911Z,4
2023-03-22T16:40:18.855Z,7
2023-03-22T16:45:18.880Z,7
2023-03-22T16:50:15.771Z,6
2023-03-22T16:55:15.751Z,5
2023-03-22T17:00:18.908Z,5
2023-03-22T17:05:18.931Z,7
2023-03-22T17:10:18.851Z,5
2023-03-22T17:15:18.905Z,5
2023-03-22T17:20:18.895Z,7
2023-03-22T17:25:18.875Z,4
2023-03-22T17:30:18.971Z,3
2023-03-22T17:35:19.580Z,10
2023-03-22T17:40:32.560Z,10
2023-03-22T17:45:15.888Z,7
2023-03-22T17:50:15.842Z,6
2023-03-22T17:55:26.698Z,5
2023-03-22T18:00:18.909Z,9
2023-03-22T18:05:24.667Z,7
2023-03-22T18:10:19.000Z,3
2023-03-22T18:15:16.079Z,7
2023-03-22T18:20:54.785Z,6
2023-03-22T18:25:18.974Z,5
2023-03-22T18:30:18.968Z,8
2023-03-22T18:35:15.851Z,4
2023-03-22T18:41:07.362Z,7
2023-03-22T18:45:21.085Z,5
2023-03-22T18:50:18.997Z,10
2023-03-22T18:55:29.689Z,7
2023-03-22T19:00:19.057Z,8
2023-03-22T19:05:19.075Z,8
2023-03-22T19:10:19.011Z,7
2023-03-22T19:15:44.401Z,8
2023-03-22T19:20:19.039Z,10
2023-03-22T19:25:19.015Z,7
2023-03-22T19:30:15.877Z,8
2023-03-22T19:35:15.910Z,9
2023-03-22T19:41:23.436Z,8
2023-03-22T19:41:49.377Z,8
2023-03-22T19:45:19.168Z,9
2023-03-22T19:50:19.318Z,10
2023-03-22T19:55:19.182Z,9
2023-03-22T20:00:44.463Z,9
2023-03-22T20:05:19.164Z,10
2023-03-22T20:10:19.159Z,5
2023-03-22T20:15:19.118Z,8
2023-03-22T20:20:19.152Z,4
2023-03-22T20:25:16.179Z,5
2023-03-22T20:30:19.271Z,8
2023-03-22T20:35:19.131Z,10
2023-03-22T20:40:19.151Z,7
2023-03-22T20:45:19.191Z,7
2023-03-22T20:50:19.257Z,8
2023-03-22T20:55:19.227Z,7
2023-03-22T21:00:19.201Z,11
2023-03-22T21:05:19.099Z,7
2023-03-22T21:10:19.226Z,11
2023-03-22T21:15:16.092Z,8
2023-03-22T21:20:26.866Z,6
2023-03-22T21:25:19.263Z,8
2023-03-22T21:30:19.429Z,8
2023-03-22T21:35:19.269Z,5
2023-03-22T21:40:19.352Z,10
2023-03-22T21:45:19.747Z,7
2023-03-22T21:50:19.286Z,5
2023-03-22T21:55:19.359Z,6
2023-03-22T22:00:19.362Z,4
2023-03-22T22:05:19.310Z,10
2023-03-22T22:10:16.259Z,5
2023-03-22T22:15:16.201Z,9
2023-03-22T22:20:19.365Z,5
2023-03-22T22:25:19.412Z,3
2023-03-22T22:30:19.428Z,6
2023-03-22T22:35:19.403Z,3
2023-03-22T22:40:19.472Z,5
2023-03-22T22:45:19.632Z,5
2023-03-22T22:50:19.366Z,2
2023-03-22T22:55:19.526Z,5
2023-03-22T23:00:19.412Z,4
2023-03-22T23:05:16.366Z,3
2023-03-22T23:10:19.522Z,5
2023-03-22T23:15:27.025Z,2
2023-03-22T23:20:19.476Z,3
2023-03-22T23:25:19.451Z,5
2023-03-22T23:30:19.457Z,0
2023-03-22T23:35:19.510Z,4
2023-03-22T23:40:19.537Z,3
2023-03-22T23:45:19.506Z,1
2023-03-22T23:50:19.607Z,1
2023-03-22T23:55:16.526Z,0
